sensor_id;sensor_type;location;lat;lon;timestamp;P1;durP1;ratioP1;P2;durP2;ratioP2
19414;SDS011;9843;48.882;12.592;2022-09-16T00:01:36;13.87;;;12.47;;
19414;SDS011;9843;48.882;12.592;2022-09-16T00:04:03;17.23;;;14.20;;
19414;SDS011;9843;48.882;12.592;2022-09-16T00:06:31;17.53;;;14.83;;
19414;SDS011;9843;48.882;12.592;2022-09-16T00:08:58;16.40;;;14.43;;
19414;SDS011;9843;48.882;12.592;2022-09-16T00:11:26;16.13;;;14.47;;
19414;SDS011;9843;48.882;12.592;2022-09-16T00:13:53;15.13;;;13.27;;
19414;SDS011;9843;48.882;12.592;2022-09-16T00:16:20;19.37;;;14.80;;
19414;SDS011;9843;48.882;12.592;2022-09-16T00:18:51;18.80;;;15.93;;
19414;SDS011;9843;48.882;12.592;2022-09-16T00:21:19;15.43;;;13.83;;
19414;SDS011;9843;48.882;12.592;2022-09-16T00:23:47;16.80;;;14.47;;
19414;SDS011;9843;48.882;12.592;2022-09-16T00:26:15;17.70;;;15.83;;
19414;SDS011;9843;48.882;12.592;2022-09-16T00:28:42;16.90;;;13.57;;
19414;SDS011;9843;48.882;12.592;2022-09-16T00:31:09;15.03;;;13.37;;
19414;SDS011;9843;48.882;12.592;2022-09-16T00:33:35;15.40;;;13.73;;
19414;SDS011;9843;48.882;12.592;2022-09-16T00:36:03;31.23;;;17.93;;
19414;SDS011;9843;48.882;12.592;2022-09-16T00:38:31;18.43;;;14.87;;
19414;SDS011;9843;48.882;12.592;2022-09-16T00:40:59;14.67;;;13.17;;
19414;SDS011;9843;48.882;12.592;2022-09-16T00:43:26;21.47;;;14.63;;
19414;SDS011;9843;48.882;12.592;2022-09-16T00:45:54;15.40;;;12.83;;
19414;SDS011;9843;48.882;12.592;2022-09-16T00:48:24;15.20;;;13.77;;
19414;SDS011;9843;48.882;12.592;2022-09-16T00:50:55;15.63;;;14.07;;
19414;SDS011;9843;48.882;12.592;2022-09-16T00:53:25;16.23;;;14.53;;
19414;SDS011;9843;48.882;12.592;2022-09-16T00:55:55;22.80;;;15.87;;
19414;SDS011;9843;48.882;12.592;2022-09-16T00:58:28;20.50;;;17.60;;
19414;SDS011;9843;48.882;12.592;2022-09-16T01:00:59;22.47;;;18.77;;
19414;SDS011;9843;48.882;12.592;2022-09-16T01:03:26;19.77;;;15.87;;
19414;SDS011;9843;48.882;12.592;2022-09-16T01:05:55;17.27;;;15.40;;
19414;SDS011;9843;48.882;12.592;2022-09-16T01:08:22;17.47;;;15.73;;
19414;SDS011;9843;48.882;12.592;2022-09-16T01:10:49;23.23;;;17.50;;
19414;SDS011;9843;48.882;12.592;2022-09-16T01:13:15;20.20;;;17.27;;
19414;SDS011;9843;48.882;12.592;2022-09-16T01:15:47;19.70;;;17.67;;
19414;SDS011;9843;48.882;12.592;2022-09-16T01:18:24;29.87;;;22.23;;
19414;SDS011;9843;48.882;12.592;2022-09-16T01:21:12;27.40;;;19.97;;
19414;SDS011;9843;48.882;12.592;2022-09-16T01:24:10;25.93;;;19.50;;
19414;SDS011;9843;48.882;12.592;2022-09-16T01:27:06;18.90;;;16.90;;
19414;SDS011;9843;48.882;12.592;2022-09-16T01:32:52;21.97;;;17.43;;
19414;SDS011;9843;48.882;12.592;2022-09-16T01:35:32;18.30;;;16.33;;
19414;SDS011;9843;48.882;12.592;2022-09-16T01:38:09;25.23;;;17.43;;
19414;SDS011;9843;48.882;12.592;2022-09-16T01:40:51;22.30;;;17.13;;
19414;SDS011;9843;48.882;12.592;2022-09-16T01:43:24;25.10;;;18.67;;
19414;SDS011;9843;48.882;12.592;2022-09-16T01:45:59;21.30;;;16.67;;
19414;SDS011;9843;48.882;12.592;2022-09-16T01:48:31;27.27;;;20.83;;
19414;SDS011;9843;48.882;12.592;2022-09-16T01:51:05;27.23;;;21.53;;
19414;SDS011;9843;48.882;12.592;2022-09-16T01:53:42;24.57;;;19.73;;
19414;SDS011;9843;48.882;12.592;2022-09-16T01:56:15;28.40;;;21.63;;
19414;SDS011;9843;48.882;12.592;2022-09-16T01:58:52;23.07;;;19.93;;
19414;SDS011;9843;48.882;12.592;2022-09-16T02:01:24;30.80;;;20.60;;
19414;SDS011;9843;48.882;12.592;2022-09-16T02:03:58;25.70;;;19.07;;
19414;SDS011;9843;48.882;12.592;2022-09-16T02:06:29;23.23;;;18.93;;
19414;SDS011;9843;48.882;12.592;2022-09-16T02:08:59;24.20;;;17.63;;
19414;SDS011;9843;48.882;12.592;2022-09-16T02:11:29;23.13;;;20.10;;
19414;SDS011;9843;48.882;12.592;2022-09-16T02:13:56;25.93;;;18.83;;
19414;SDS011;9843;48.882;12.592;2022-09-16T02:16:29;21.97;;;18.20;;
19414;SDS011;9843;48.882;12.592;2022-09-16T02:19:04;23.63;;;17.20;;
19414;SDS011;9843;48.882;12.592;2022-09-16T02:21:34;22.73;;;18.33;;
19414;SDS011;9843;48.882;12.592;2022-09-16T02:24:03;21.77;;;18.43;;
19414;SDS011;9843;48.882;12.592;2022-09-16T02:26:36;29.27;;;20.47;;
19414;SDS011;9843;48.882;12.592;2022-09-16T02:29:06;21.97;;;19.70;;
19414;SDS011;9843;48.882;12.592;2022-09-16T02:31:38;21.00;;;18.17;;
19414;SDS011;9843;48.882;12.592;2022-09-16T02:34:10;20.40;;;17.83;;
19414;SDS011;9843;48.882;12.592;2022-09-16T02:36:41;19.53;;;17.33;;
19414;SDS011;9843;48.882;12.592;2022-09-16T02:39:12;22.13;;;18.63;;
19414;SDS011;9843;48.882;12.592;2022-09-16T02:41:41;29.30;;;19.13;;
19414;SDS011;9843;48.882;12.592;2022-09-16T02:44:08;25.23;;;22.10;;
19414;SDS011;9843;48.882;12.592;2022-09-16T02:46:37;22.37;;;19.50;;
19414;SDS011;9843;48.882;12.592;2022-09-16T02:49:13;24.23;;;19.27;;
19414;SDS011;9843;48.882;12.592;2022-09-16T02:51:51;23.53;;;19.13;;
19414;SDS011;9843;48.882;12.592;2022-09-16T02:54:24;22.90;;;20.37;;
19414;SDS011;9843;48.882;12.592;2022-09-16T02:56:59;24.87;;;19.07;;
19414;SDS011;9843;48.882;12.592;2022-09-16T02:59:26;22.00;;;19.23;;
19414;SDS011;9843;48.882;12.592;2022-09-16T03:01:53;27.80;;;20.57;;
19414;SDS011;9843;48.882;12.592;2022-09-16T03:04:21;21.97;;;18.73;;
19414;SDS011;9843;48.882;12.592;2022-09-16T03:06:48;23.30;;;18.17;;
19414;SDS011;9843;48.882;12.592;2022-09-16T03:09:15;26.23;;;20.67;;
19414;SDS011;9843;48.882;12.592;2022-09-16T03:11:46;31.00;;;21.00;;
19414;SDS011;9843;48.882;12.592;2022-09-16T03:14:44;22.87;;;19.27;;
19414;SDS011;9843;48.882;12.592;2022-09-16T03:17:27;24.07;;;19.97;;
19414;SDS011;9843;48.882;12.592;2022-09-16T03:20:07;23.67;;;20.77;;
19414;SDS011;9843;48.882;12.592;2022-09-16T03:22:45;26.70;;;19.67;;
19414;SDS011;9843;48.882;12.592;2022-09-16T03:25:22;26.20;;;20.57;;
19414;SDS011;9843;48.882;12.592;2022-09-16T03:27:59;23.77;;;19.97;;
19414;SDS011;9843;48.882;12.592;2022-09-16T03:30:33;25.47;;;19.70;;
19414;SDS011;9843;48.882;12.592;2022-09-16T03:33:03;20.10;;;18.00;;
19414;SDS011;9843;48.882;12.592;2022-09-16T03:35:37;21.30;;;18.23;;
19414;SDS011;9843;48.882;12.592;2022-09-16T03:38:08;21.13;;;18.87;;
19414;SDS011;9843;48.882;12.592;2022-09-16T03:40:37;43.97;;;17.70;;
19414;SDS011;9843;48.882;12.592;2022-09-16T03:43:08;20.13;;;18.10;;
19414;SDS011;9843;48.882;12.592;2022-09-16T03:45:36;27.53;;;17.47;;
19414;SDS011;9843;48.882;12.592;2022-09-16T03:48:04;20.97;;;16.17;;
19414;SDS011;9843;48.882;12.592;2022-09-16T03:50:31;20.33;;;18.10;;
19414;SDS011;9843;48.882;12.592;2022-09-16T03:52:59;26.00;;;19.07;;
19414;SDS011;9843;48.882;12.592;2022-09-16T03:55:26;25.87;;;21.03;;
19414;SDS011;9843;48.882;12.592;2022-09-16T03:57:53;23.23;;;20.83;;
19414;SDS011;9843;48.882;12.592;2022-09-16T04:00:20;27.07;;;20.97;;
19414;SDS011;9843;48.882;12.592;2022-09-16T04:02:47;27.43;;;23.83;;
19414;SDS011;9843;48.882;12.592;2022-09-16T04:05:14;32.23;;;22.97;;
19414;SDS011;9843;48.882;12.592;2022-09-16T04:07:41;24.07;;;21.60;;
19414;SDS011;9843;48.882;12.592;2022-09-16T04:10:09;25.13;;;21.30;;
19414;SDS011;9843;48.882;12.592;2022-09-16T04:12:36;26.37;;;21.00;;
19414;SDS011;9843;48.882;12.592;2022-09-16T04:15:03;27.00;;;21.53;;
19414;SDS011;9843;48.882;12.592;2022-09-16T04:17:30;27.80;;;23.30;;
19414;SDS011;9843;48.882;12.592;2022-09-16T04:19:57;25.40;;;21.80;;
19414;SDS011;9843;48.882;12.592;2022-09-16T04:22:26;22.70;;;20.30;;
19414;SDS011;9843;48.882;12.592;2022-09-16T04:24:53;26.03;;;22.37;;
19414;SDS011;9843;48.882;12.592;2022-09-16T04:27:21;24.23;;;21.37;;
19414;SDS011;9843;48.882;12.592;2022-09-16T04:29:48;25.57;;;21.97;;
19414;SDS011;9843;48.882;12.592;2022-09-16T04:32:15;30.37;;;21.50;;
19414;SDS011;9843;48.882;12.592;2022-09-16T04:34:42;31.30;;;21.57;;
19414;SDS011;9843;48.882;12.592;2022-09-16T04:37:08;26.30;;;22.50;;
19414;SDS011;9843;48.882;12.592;2022-09-16T04:39:35;28.13;;;21.87;;
19414;SDS011;9843;48.882;12.592;2022-09-16T04:42:02;34.50;;;22.87;;
19414;SDS011;9843;48.882;12.592;2022-09-16T04:44:31;27.33;;;20.83;;
19414;SDS011;9843;48.882;12.592;2022-09-16T04:46:58;30.47;;;24.07;;
19414;SDS011;9843;48.882;12.592;2022-09-16T04:49:25;33.87;;;23.00;;
19414;SDS011;9843;48.882;12.592;2022-09-16T04:51:52;29.37;;;22.90;;
19414;SDS011;9843;48.882;12.592;2022-09-16T04:54:18;26.87;;;21.80;;
19414;SDS011;9843;48.882;12.592;2022-09-16T04:56:45;29.53;;;21.20;;
19414;SDS011;9843;48.882;12.592;2022-09-16T04:59:12;23.07;;;20.60;;
19414;SDS011;9843;48.882;12.592;2022-09-16T05:01:40;28.33;;;22.17;;
19414;SDS011;9843;48.882;12.592;2022-09-16T05:04:08;25.20;;;20.63;;
19414;SDS011;9843;48.882;12.592;2022-09-16T05:06:35;28.83;;;22.53;;
19414;SDS011;9843;48.882;12.592;2022-09-16T05:09:05;25.53;;;22.63;;
19414;SDS011;9843;48.882;12.592;2022-09-16T05:11:32;26.33;;;21.43;;
19414;SDS011;9843;48.882;12.592;2022-09-16T05:14:01;28.73;;;23.57;;
19414;SDS011;9843;48.882;12.592;2022-09-16T05:16:28;31.37;;;22.47;;
19414;SDS011;9843;48.882;12.592;2022-09-16T05:18:58;26.43;;;21.63;;
19414;SDS011;9843;48.882;12.592;2022-09-16T05:21:29;35.63;;;23.83;;
19414;SDS011;9843;48.882;12.592;2022-09-16T05:23:58;25.40;;;21.03;;
19414;SDS011;9843;48.882;12.592;2022-09-16T05:26:27;37.23;;;23.93;;
19414;SDS011;9843;48.882;12.592;2022-09-16T05:28:55;30.17;;;21.93;;
19414;SDS011;9843;48.882;12.592;2022-09-16T05:31:25;25.03;;;19.20;;
19414;SDS011;9843;48.882;12.592;2022-09-16T05:33:54;25.53;;;20.63;;
19414;SDS011;9843;48.882;12.592;2022-09-16T05:36:24;30.33;;;21.20;;
19414;SDS011;9843;48.882;12.592;2022-09-16T05:38:51;23.10;;;20.60;;
19414;SDS011;9843;48.882;12.592;2022-09-16T05:41:19;24.93;;;22.33;;
19414;SDS011;9843;48.882;12.592;2022-09-16T05:43:46;28.47;;;20.60;;
19414;SDS011;9843;48.882;12.592;2022-09-16T05:46:15;20.47;;;18.27;;
19414;SDS011;9843;48.882;12.592;2022-09-16T05:48:43;23.40;;;17.47;;
19414;SDS011;9843;48.882;12.592;2022-09-16T05:51:11;21.67;;;19.27;;
19414;SDS011;9843;48.882;12.592;2022-09-16T05:53:41;30.03;;;20.50;;
19414;SDS011;9843;48.882;12.592;2022-09-16T05:56:09;22.50;;;19.30;;
19414;SDS011;9843;48.882;12.592;2022-09-16T05:58:38;29.90;;;20.10;;
19414;SDS011;9843;48.882;12.592;2022-09-16T06:01:05;29.07;;;20.50;;
19414;SDS011;9843;48.882;12.592;2022-09-16T06:03:34;22.40;;;18.60;;
19414;SDS011;9843;48.882;12.592;2022-09-16T06:06:02;26.73;;;22.97;;
19414;SDS011;9843;48.882;12.592;2022-09-16T06:08:32;23.30;;;20.43;;
19414;SDS011;9843;48.882;12.592;2022-09-16T06:11:02;25.73;;;20.70;;
19414;SDS011;9843;48.882;12.592;2022-09-16T06:13:30;19.80;;;17.73;;
19414;SDS011;9843;48.882;12.592;2022-09-16T06:15:57;20.87;;;17.30;;
19414;SDS011;9843;48.882;12.592;2022-09-16T06:18:25;21.90;;;17.07;;
19414;SDS011;9843;48.882;12.592;2022-09-16T06:20:52;22.37;;;18.20;;
19414;SDS011;9843;48.882;12.592;2022-09-16T06:23:20;26.63;;;17.67;;
19414;SDS011;9843;48.882;12.592;2022-09-16T06:25:47;21.43;;;15.50;;
19414;SDS011;9843;48.882;12.592;2022-09-16T06:28:15;25.60;;;16.33;;
19414;SDS011;9843;48.882;12.592;2022-09-16T06:30:42;22.70;;;16.13;;
19414;SDS011;9843;48.882;12.592;2022-09-16T06:33:08;20.07;;;14.60;;
19414;SDS011;9843;48.882;12.592;2022-09-16T06:35:36;23.27;;;15.10;;
19414;SDS011;9843;48.882;12.592;2022-09-16T06:38:03;15.93;;;14.30;;
19414;SDS011;9843;48.882;12.592;2022-09-16T06:40:30;17.27;;;15.00;;
19414;SDS011;9843;48.882;12.592;2022-09-16T06:42:56;15.60;;;14.03;;
19414;SDS011;9843;48.882;12.592;2022-09-16T06:45:24;21.90;;;16.37;;
19414;SDS011;9843;48.882;12.592;2022-09-16T06:47:53;16.20;;;13.63;;
19414;SDS011;9843;48.882;12.592;2022-09-16T06:50:24;18.97;;;16.53;;
19414;SDS011;9843;48.882;12.592;2022-09-16T06:52:51;15.50;;;14.00;;
19414;SDS011;9843;48.882;12.592;2022-09-16T06:55:17;21.40;;;15.60;;
19414;SDS011;9843;48.882;12.592;2022-09-16T06:57:44;17.37;;;14.17;;
19414;SDS011;9843;48.882;12.592;2022-09-16T07:00:11;19.63;;;15.23;;
19414;SDS011;9843;48.882;12.592;2022-09-16T07:02:40;19.23;;;14.13;;
19414;SDS011;9843;48.882;12.592;2022-09-16T07:05:07;19.53;;;13.60;;
19414;SDS011;9843;48.882;12.592;2022-09-16T07:07:36;15.83;;;14.03;;
19414;SDS011;9843;48.882;12.592;2022-09-16T07:10:04;14.77;;;13.17;;
19414;SDS011;9843;48.882;12.592;2022-09-16T07:12:31;17.80;;;12.47;;
19414;SDS011;9843;48.882;12.592;2022-09-16T07:14:58;16.60;;;12.77;;
19414;SDS011;9843;48.882;12.592;2022-09-16T07:17:24;18.17;;;13.33;;
19414;SDS011;9843;48.882;12.592;2022-09-16T07:19:53;14.00;;;11.43;;
19414;SDS011;9843;48.882;12.592;2022-09-16T07:22:20;12.13;;;10.93;;
19414;SDS011;9843;48.882;12.592;2022-09-16T07:24:47;10.77;;;9.30;;
19414;SDS011;9843;48.882;12.592;2022-09-16T07:27:14;8.93;;;8.10;;
19414;SDS011;9843;48.882;12.592;2022-09-16T07:29:41;11.17;;;8.00;;
19414;SDS011;9843;48.882;12.592;2022-09-16T07:32:08;12.00;;;8.33;;
19414;SDS011;9843;48.882;12.592;2022-09-16T07:34:34;13.10;;;9.00;;
19414;SDS011;9843;48.882;12.592;2022-09-16T07:37:02;9.60;;;8.70;;
19414;SDS011;9843;48.882;12.592;2022-09-16T07:39:29;10.00;;;8.23;;
19414;SDS011;9843;48.882;12.592;2022-09-16T07:41:56;11.87;;;8.70;;
19414;SDS011;9843;48.882;12.592;2022-09-16T07:44:24;10.60;;;9.60;;
19414;SDS011;9843;48.882;12.592;2022-09-16T07:46:51;9.97;;;8.90;;
19414;SDS011;9843;48.882;12.592;2022-09-16T07:49:17;11.43;;;9.17;;
19414;SDS011;9843;48.882;12.592;2022-09-16T07:51:44;9.83;;;8.07;;
19414;SDS011;9843;48.882;12.592;2022-09-16T07:54:13;9.93;;;8.43;;
19414;SDS011;9843;48.882;12.592;2022-09-16T07:56:41;11.77;;;7.50;;
19414;SDS011;9843;48.882;12.592;2022-09-16T07:59:10;9.70;;;7.70;;
19414;SDS011;9843;48.882;12.592;2022-09-16T08:01:38;13.80;;;8.33;;
19414;SDS011;9843;48.882;12.592;2022-09-16T08:04:05;8.20;;;7.33;;
19414;SDS011;9843;48.882;12.592;2022-09-16T08:06:32;12.37;;;6.40;;
19414;SDS011;9843;48.882;12.592;2022-09-16T08:09:02;9.57;;;6.23;;
19414;SDS011;9843;48.882;12.592;2022-09-16T08:11:30;5.30;;;3.93;;
19414;SDS011;9843;48.882;12.592;2022-09-16T08:13:57;10.37;;;5.13;;
19414;SDS011;9843;48.882;12.592;2022-09-16T08:16:24;6.87;;;5.83;;
19414;SDS011;9843;48.882;12.592;2022-09-16T08:18:53;12.93;;;5.17;;
19414;SDS011;9843;48.882;12.592;2022-09-16T08:21:21;9.83;;;5.73;;
19414;SDS011;9843;48.882;12.592;2022-09-16T08:23:49;5.77;;;5.20;;
19414;SDS011;9843;48.882;12.592;2022-09-16T08:26:17;10.83;;;5.73;;
19414;SDS011;9843;48.882;12.592;2022-09-16T08:28:46;6.77;;;4.33;;
19414;SDS011;9843;48.882;12.592;2022-09-16T08:31:14;8.90;;;4.67;;
19414;SDS011;9843;48.882;12.592;2022-09-16T08:33:41;7.43;;;5.93;;
19414;SDS011;9843;48.882;12.592;2022-09-16T08:36:10;7.57;;;5.87;;
19414;SDS011;9843;48.882;12.592;2022-09-16T08:38:39;7.03;;;5.60;;
19414;SDS011;9843;48.882;12.592;2022-09-16T08:41:14;7.90;;;5.03;;
19414;SDS011;9843;48.882;12.592;2022-09-16T08:44:16;9.00;;;5.73;;
19414;SDS011;9843;48.882;12.592;2022-09-16T08:46:55;9.43;;;5.63;;
19414;SDS011;9843;48.882;12.592;2022-09-16T08:49:29;7.67;;;4.80;;
19414;SDS011;9843;48.882;12.592;2022-09-16T08:51:59;9.33;;;5.30;;
19414;SDS011;9843;48.882;12.592;2022-09-16T08:54:30;7.60;;;6.80;;
19414;SDS011;9843;48.882;12.592;2022-09-16T08:57:03;7.23;;;6.53;;
19414;SDS011;9843;48.882;12.592;2022-09-16T08:59:34;8.57;;;5.63;;
19414;SDS011;9843;48.882;12.592;2022-09-16T09:02:21;6.87;;;5.70;;
19414;SDS011;9843;48.882;12.592;2022-09-16T09:04:56;9.40;;;5.50;;
19414;SDS011;9843;48.882;12.592;2022-09-16T09:07:33;6.30;;;5.70;;
19414;SDS011;9843;48.882;12.592;2022-09-16T09:10:12;8.47;;;5.17;;
19414;SDS011;9843;48.882;12.592;2022-09-16T09:12:49;6.23;;;4.67;;
19414;SDS011;9843;48.882;12.592;2022-09-16T09:15:28;6.83;;;6.00;;
19414;SDS011;9843;48.882;12.592;2022-09-16T09:18:07;12.17;;;6.13;;
19414;SDS011;9843;48.882;12.592;2022-09-16T09:20:44;7.67;;;5.63;;
19414;SDS011;9843;48.882;12.592;2022-09-16T09:23:22;5.20;;;4.70;;
19414;SDS011;9843;48.882;12.592;2022-09-16T09:26:01;7.97;;;6.33;;
19414;SDS011;9843;48.882;12.592;2022-09-16T09:31:24;13.33;;;5.23;;
19414;SDS011;9843;48.882;12.592;2022-09-16T09:34:00;5.97;;;4.77;;
19414;SDS011;9843;48.882;12.592;2022-09-16T09:36:43;6.33;;;5.73;;
19414;SDS011;9843;48.882;12.592;2022-09-16T09:39:23;12.53;;;7.17;;
19414;SDS011;9843;48.882;12.592;2022-09-16T09:41:59;11.43;;;7.20;;
19414;SDS011;9843;48.882;12.592;2022-09-16T09:44:44;13.70;;;4.60;;
19414;SDS011;9843;48.882;12.592;2022-09-16T09:47:23;8.17;;;6.67;;
19414;SDS011;9843;48.882;12.592;2022-09-16T09:49:54;8.67;;;5.33;;
19414;SDS011;9843;48.882;12.592;2022-09-16T09:52:25;7.93;;;5.17;;
19414;SDS011;9843;48.882;12.592;2022-09-16T09:54:58;5.70;;;5.10;;
19414;SDS011;9843;48.882;12.592;2022-09-16T09:57:31;6.30;;;4.57;;
19414;SDS011;9843;48.882;12.592;2022-09-16T10:00:03;7.90;;;4.73;;
19414;SDS011;9843;48.882;12.592;2022-09-16T10:02:38;9.83;;;5.10;;
19414;SDS011;9843;48.882;12.592;2022-09-16T10:05:08;6.60;;;4.57;;
19414;SDS011;9843;48.882;12.592;2022-09-16T10:07:43;8.57;;;4.80;;
19414;SDS011;9843;48.882;12.592;2022-09-16T10:10:11;20.50;;;7.83;;
19414;SDS011;9843;48.882;12.592;2022-09-16T10:12:40;9.47;;;5.37;;
19414;SDS011;9843;48.882;12.592;2022-09-16T10:15:17;5.33;;;4.83;;
19414;SDS011;9843;48.882;12.592;2022-09-16T10:17:48;8.93;;;4.97;;
19414;SDS011;9843;48.882;12.592;2022-09-16T10:20:21;7.43;;;4.67;;
19414;SDS011;9843;48.882;12.592;2022-09-16T10:22:53;7.37;;;5.60;;
19414;SDS011;9843;48.882;12.592;2022-09-16T10:25:23;6.33;;;5.80;;
19414;SDS011;9843;48.882;12.592;2022-09-16T10:27:53;10.33;;;5.80;;
19414;SDS011;9843;48.882;12.592;2022-09-16T10:30:22;8.23;;;4.87;;
19414;SDS011;9843;48.882;12.592;2022-09-16T10:32:55;12.87;;;6.63;;
19414;SDS011;9843;48.882;12.592;2022-09-16T10:35:25;5.90;;;5.20;;
19414;SDS011;9843;48.882;12.592;2022-09-16T10:37:54;5.73;;;5.00;;
19414;SDS011;9843;48.882;12.592;2022-09-16T10:40:22;5.37;;;4.87;;
19414;SDS011;9843;48.882;12.592;2022-09-16T10:42:50;5.80;;;3.97;;
19414;SDS011;9843;48.882;12.592;2022-09-16T10:45:21;5.10;;;3.67;;
19414;SDS011;9843;48.882;12.592;2022-09-16T10:47:53;4.70;;;3.03;;
19414;SDS011;9843;48.882;12.592;2022-09-16T10:50:22;3.37;;;3.07;;
19414;SDS011;9843;48.882;12.592;2022-09-16T10:52:49;4.73;;;3.23;;
19414;SDS011;9843;48.882;12.592;2022-09-16T10:55:21;7.77;;;5.60;;
19414;SDS011;9843;48.882;12.592;2022-09-16T10:57:50;4.57;;;3.93;;
19414;SDS011;9843;48.882;12.592;2022-09-16T11:00:18;8.87;;;4.47;;
19414;SDS011;9843;48.882;12.592;2022-09-16T11:02:53;6.40;;;3.53;;
19414;SDS011;9843;48.882;12.592;2022-09-16T11:05:32;12.03;;;4.27;;
19414;SDS011;9843;48.882;12.592;2022-09-16T11:08:10;4.97;;;3.87;;
19414;SDS011;9843;48.882;12.592;2022-09-16T11:10:42;5.33;;;3.73;;
19414;SDS011;9843;48.882;12.592;2022-09-16T11:13:17;4.67;;;3.77;;
19414;SDS011;9843;48.882;12.592;2022-09-16T11:16:01;7.80;;;4.50;;
19414;SDS011;9843;48.882;12.592;2022-09-16T11:18:46;5.23;;;2.70;;
19414;SDS011;9843;48.882;12.592;2022-09-16T11:21:34;3.30;;;2.50;;
19414;SDS011;9843;48.882;12.592;2022-09-16T11:24:18;3.30;;;3.07;;
19414;SDS011;9843;48.882;12.592;2022-09-16T11:26:56;2.73;;;2.50;;
19414;SDS011;9843;48.882;12.592;2022-09-16T11:29:37;3.53;;;2.30;;
19414;SDS011;9843;48.882;12.592;2022-09-16T11:32:12;5.33;;;2.23;;
19414;SDS011;9843;48.882;12.592;2022-09-16T11:34:57;9.70;;;2.87;;
19414;SDS011;9843;48.882;12.592;2022-09-16T11:37:42;2.87;;;2.27;;
19414;SDS011;9843;48.882;12.592;2022-09-16T11:40:17;3.23;;;2.43;;
19414;SDS011;9843;48.882;12.592;2022-09-16T11:42:55;8.50;;;2.83;;
19414;SDS011;9843;48.882;12.592;2022-09-16T11:45:32;2.67;;;2.47;;
19414;SDS011;9843;48.882;12.592;2022-09-16T11:48:23;6.63;;;2.97;;
19414;SDS011;9843;48.882;12.592;2022-09-16T11:51:06;3.40;;;2.47;;
19414;SDS011;9843;48.882;12.592;2022-09-16T11:53:44;5.57;;;2.53;;
19414;SDS011;9843;48.882;12.592;2022-09-16T11:56:26;3.03;;;2.73;;
19414;SDS011;9843;48.882;12.592;2022-09-16T11:59:01;10.93;;;4.20;;
19414;SDS011;9843;48.882;12.592;2022-09-16T12:01:35;7.40;;;3.27;;
19414;SDS011;9843;48.882;12.592;2022-09-16T12:04:08;5.83;;;2.90;;
19414;SDS011;9843;48.882;12.592;2022-09-16T12:06:45;7.17;;;2.60;;
19414;SDS011;9843;48.882;12.592;2022-09-16T12:09:19;3.30;;;3.00;;
19414;SDS011;9843;48.882;12.592;2022-09-16T12:14:21;8.53;;;6.43;;
19414;SDS011;9843;48.882;12.592;2022-09-16T12:16:53;5.00;;;2.73;;
19414;SDS011;9843;48.882;12.592;2022-09-16T12:19:25;4.77;;;2.20;;
19414;SDS011;9843;48.882;12.592;2022-09-16T12:21:57;8.50;;;2.87;;
19414;SDS011;9843;48.882;12.592;2022-09-16T12:24:30;4.83;;;2.50;;
19414;SDS011;9843;48.882;12.592;2022-09-16T12:27:05;5.47;;;3.07;;
19414;SDS011;9843;48.882;12.592;2022-09-16T12:29:39;3.03;;;2.40;;
19414;SDS011;9843;48.882;12.592;2022-09-16T12:32:13;5.47;;;2.40;;
19414;SDS011;9843;48.882;12.592;2022-09-16T12:34:45;5.40;;;2.60;;
19414;SDS011;9843;48.882;12.592;2022-09-16T12:37:23;4.17;;;3.17;;
19414;SDS011;9843;48.882;12.592;2022-09-16T12:39:57;6.97;;;3.47;;
19414;SDS011;9843;48.882;12.592;2022-09-16T12:42:34;3.23;;;2.73;;
19414;SDS011;9843;48.882;12.592;2022-09-16T12:45:26;5.30;;;3.70;;
19414;SDS011;9843;48.882;12.592;2022-09-16T12:48:09;3.67;;;3.37;;
19414;SDS011;9843;48.882;12.592;2022-09-16T12:50:59;4.87;;;2.63;;
19414;SDS011;9843;48.882;12.592;2022-09-16T12:53:41;2.90;;;2.70;;
19414;SDS011;9843;48.882;12.592;2022-09-16T12:56:22;4.73;;;2.77;;
19414;SDS011;9843;48.882;12.592;2022-09-16T12:59:02;7.10;;;3.10;;
19414;SDS011;9843;48.882;12.592;2022-09-16T13:01:57;7.47;;;3.73;;
19414;SDS011;9843;48.882;12.592;2022-09-16T13:04:29;3.10;;;2.17;;
19414;SDS011;9843;48.882;12.592;2022-09-16T13:06:59;2.67;;;2.43;;
19414;SDS011;9843;48.882;12.592;2022-09-16T13:09:28;5.77;;;3.73;;
19414;SDS011;9843;48.882;12.592;2022-09-16T13:11:57;3.10;;;2.80;;
19414;SDS011;9843;48.882;12.592;2022-09-16T13:14:27;8.23;;;3.27;;
19414;SDS011;9843;48.882;12.592;2022-09-16T13:16:57;2.90;;;2.33;;
19414;SDS011;9843;48.882;12.592;2022-09-16T13:19:28;5.13;;;3.37;;
19414;SDS011;9843;48.882;12.592;2022-09-16T13:22:21;10.47;;;4.10;;
19414;SDS011;9843;48.882;12.592;2022-09-16T13:24:57;7.27;;;3.80;;
19414;SDS011;9843;48.882;12.592;2022-09-16T13:27:28;5.97;;;3.50;;
19414;SDS011;9843;48.882;12.592;2022-09-16T13:35:47;5.33;;;3.60;;
19414;SDS011;9843;48.882;12.592;2022-09-16T13:38:22;4.10;;;3.57;;
19414;SDS011;9843;48.882;12.592;2022-09-16T13:40:53;4.60;;;3.73;;
19414;SDS011;9843;48.882;12.592;2022-09-16T13:43:28;7.13;;;3.17;;
19414;SDS011;9843;48.882;12.592;2022-09-16T13:46:00;6.40;;;4.53;;
19414;SDS011;9843;48.882;12.592;2022-09-16T13:48:32;7.60;;;3.40;;
19414;SDS011;9843;48.882;12.592;2022-09-16T13:51:05;6.83;;;3.23;;
19414;SDS011;9843;48.882;12.592;2022-09-16T13:53:36;4.27;;;3.17;;
19414;SDS011;9843;48.882;12.592;2022-09-16T13:56:13;3.50;;;2.30;;
19414;SDS011;9843;48.882;12.592;2022-09-16T13:58:52;3.60;;;2.50;;
19414;SDS011;9843;48.882;12.592;2022-09-16T14:01:42;3.07;;;2.63;;
19414;SDS011;9843;48.882;12.592;2022-09-16T14:04:16;4.40;;;3.40;;
19414;SDS011;9843;48.882;12.592;2022-09-16T14:06:56;10.50;;;3.97;;
19414;SDS011;9843;48.882;12.592;2022-09-16T14:09:35;2.83;;;2.63;;
19414;SDS011;9843;48.882;12.592;2022-09-16T14:12:10;7.77;;;3.20;;
19414;SDS011;9843;48.882;12.592;2022-09-16T14:14:42;3.53;;;2.50;;
19414;SDS011;9843;48.882;12.592;2022-09-16T14:17:13;6.77;;;3.33;;
19414;SDS011;9843;48.882;12.592;2022-09-16T14:19:43;4.03;;;3.57;;
19414;SDS011;9843;48.882;12.592;2022-09-16T14:22:13;3.37;;;2.63;;
19414;SDS011;9843;48.882;12.592;2022-09-16T14:24:41;6.40;;;3.53;;
19414;SDS011;9843;48.882;12.592;2022-09-16T14:27:18;5.10;;;2.63;;
19414;SDS011;9843;48.882;12.592;2022-09-16T14:29:56;3.27;;;3.03;;
19414;SDS011;9843;48.882;12.592;2022-09-16T14:32:25;3.47;;;2.50;;
19414;SDS011;9843;48.882;12.592;2022-09-16T14:34:55;8.47;;;3.33;;
19414;SDS011;9843;48.882;12.592;2022-09-16T14:37:24;4.63;;;3.67;;
19414;SDS011;9843;48.882;12.592;2022-09-16T14:39:53;5.20;;;2.77;;
19414;SDS011;9843;48.882;12.592;2022-09-16T14:42:23;4.63;;;2.67;;
19414;SDS011;9843;48.882;12.592;2022-09-16T14:44:50;5.63;;;2.73;;
19414;SDS011;9843;48.882;12.592;2022-09-16T14:47:20;3.53;;;3.23;;
19414;SDS011;9843;48.882;12.592;2022-09-16T14:49:49;5.40;;;2.90;;
19414;SDS011;9843;48.882;12.592;2022-09-16T14:52:20;5.10;;;2.57;;
19414;SDS011;9843;48.882;12.592;2022-09-16T14:54:48;5.73;;;3.50;;
19414;SDS011;9843;48.882;12.592;2022-09-16T14:57:16;4.77;;;3.10;;
19414;SDS011;9843;48.882;12.592;2022-09-16T14:59:48;5.50;;;2.50;;
19414;SDS011;9843;48.882;12.592;2022-09-16T15:02:20;7.23;;;3.03;;
19414;SDS011;9843;48.882;12.592;2022-09-16T15:04:51;6.00;;;2.87;;
19414;SDS011;9843;48.882;12.592;2022-09-16T15:07:22;2.77;;;2.50;;
19414;SDS011;9843;48.882;12.592;2022-09-16T15:09:52;5.17;;;3.57;;
19414;SDS011;9843;48.882;12.592;2022-09-16T15:12:24;8.33;;;3.33;;
19414;SDS011;9843;48.882;12.592;2022-09-16T15:14:54;3.53;;;2.93;;